Time;durP1;ratioP1;P1;durP2;ratioP2;P2;SDS_P1;SDS_P2;PMS_P1;PMS_P2;Temp;Humidity;BMP_temperature;BMP_pressure;BME280_temperature;BME280_humidity;BME280_pressure;Samples;Min_cycle;Max_cycle;Signal;HPM_P1;HPM_P2
2024/03/04 00:00:39;;;;;;;12.07;6.43;;;21.30;59.40;;;;;;4993910;28;87275;-55
2024/03/04 00:03:04;;;;;;;10.85;6.22;;;21.30;59.50;;;;;;5007378;28;87765;-56
2024/03/04 00:05:34;;;;;;;15.02;7.35;;;21.30;59.40;;;;;;5011578;27;87407;-58
2024/03/04 00:08:01;;;;;;;13.32;6.45;;;21.20;59.20;;;;;;5012892;27;88144;-53
2024/03/04 00:10:31;;;;;;;11.43;6.50;;;21.20;59.20;;;;;;5015682;27;87936;-56
2024/03/04 00:12:57;;;;;;;;;;;21.20;59.30;;;;;;5027878;27;87217;-56
2024/03/04 00:15:23;;;;;;;16.52;6.38;;;21.20;59.30;;;;;;5020778;27;88133;-58
2024/03/04 00:17:50;;;;;;;11.63;5.88;;;21.20;59.30;;;;;;5013424;27;88196;-57
2024/03/04 00:20:18;;;;;;;10.88;6.00;;;21.20;59.30;;;;;;5027256;27;89389;-57
2024/03/04 00:22:47;;;;;;;10.18;5.90;;;21.20;59.10;;;;;;5032474;27;87047;-57
2024/03/04 00:25:16;;;;;;;12.13;5.85;;;21.20;59.20;;;;;;5029366;28;87388;-57
2024/03/04 00:27:42;;;;;;;11.75;6.13;;;21.20;59.10;;;;;;5016493;28;89036;-55
2024/03/04 00:30:08;;;;;;;10.68;5.90;;;21.20;59.10;;;;;;5028331;27;87370;-55
2024/03/04 00:32:35;;;;;;;11.70;6.45;;;21.20;59.10;;;;;;5028561;27;87689;-57
2024/03/04 00:35:01;;;;;;;10.82;5.60;;;21.20;59.20;;;;;;5029820;27;87813;-54
2024/03/04 00:37:26;;;;;;;11.63;6.43;;;21.20;59.10;;;;;;5013881;27;88401;-56
2024/03/04 00:39:52;;;;;;;13.70;5.75;;;21.20;59.10;;;;;;5016371;28;87876;-57
2024/03/04 00:42:18;;;;;;;9.13;6.18;;;21.10;59.10;;;;;;5029383;27;87831;-58
2024/03/04 00:44:44;;;;;;;13.15;6.28;;;21.20;59.20;;;;;;5031024;27;87388;-54
2024/03/04 00:47:10;;;;;;;11.68;5.63;;;21.10;59.70;;;;;;5024963;27;88429;-54
2024/03/04 00:49:36;;;;;;;10.65;6.75;;;21.10;59.00;;;;;;5015371;27;88516;-59
2024/03/04 00:52:02;;;;;;;10.77;6.25;;;21.10;58.90;;;;;;5028753;27;88272;-58
2024/03/04 00:54:28;;;;;;;10.85;5.65;;;21.10;58.90;;;;;;5027877;27;87205;-56
2024/03/04 00:56:55;;;;;;;10.55;6.00;;;21.10;59.00;;;;;;5027693;27;87440;-56
2024/03/04 00:59:23;;;;;;;11.95;5.82;;;21.10;58.90;;;;;;5019108;27;88987;-56
2024/03/04 01:01:50;;;;;;;10.93;5.93;;;21.10;58.90;;;;;;5014057;27;87202;-57
2024/03/04 01:04:16;;;;;;;10.40;5.95;;;21.10;58.90;;;;;;5014152;28;87508;-55
2024/03/04 01:06:41;;;;;;;11.30;5.85;;;21.10;59.00;;;;;;5019936;27;89091;-57
2024/03/04 01:09:10;;;;;;;10.85;5.88;;;21.10;58.80;;;;;;5023948;27;88174;-54
2024/03/04 01:11:36;;;;;;;10.05;5.78;;;21.10;59.40;;;;;;5018918;27;87646;-58
2024/03/04 01:14:02;;;;;;;11.88;5.57;;;21.10;58.80;;;;;;5008193;27;87409;-55
2024/03/04 01:16:28;;;;;;;9.70;5.50;;;21.10;58.70;;;;;;5030844;27;88584;-58
2024/03/04 01:18:54;;;;;;;10.48;6.00;;;21.10;58.70;;;;;;5031825;27;88087;-57
2024/03/04 01:21:20;;;;;;;9.07;5.25;;;21.00;58.90;;;;;;5025083;27;87870;-56
2024/03/04 01:23:46;;;;;;;12.00;6.38;;;21.10;58.60;;;;;;5008585;27;87394;-58
2024/03/04 01:26:13;;;;;;;13.05;6.40;;;21.00;58.50;;;;;;5009264;27;88178;-53
2024/03/04 01:28:40;;;;;;;11.23;6.10;;;21.10;58.50;;;;;;5027403;27;87833;-55
2024/03/04 01:31:07;;;;;;;11.45;5.32;;;21.10;58.60;;;;;;5019891;27;88411;-57
2024/03/04 01:33:33;;;;;;;11.90;6.20;;;21.00;58.60;;;;;;5032323;27;87248;-56
2024/03/04 01:36:00;;;;;;;10.07;5.68;;;21.00;58.50;;;;;;5023240;27;88575;-56
2024/03/04 01:38:27;;;;;;;10.10;5.78;;;21.00;58.50;;;;;;5023853;27;88969;-57
2024/03/04 01:40:54;;;;;;;10.18;5.50;;;21.00;58.50;;;;;;5013326;28;88033;-57
2024/03/04 01:43:21;;;;;;;9.85;5.30;;;21.00;58.50;;;;;;5011886;28;87786;-54
2024/03/04 01:45:47;;;;;;;10.55;5.72;;;21.00;58.50;;;;;;5010004;27;88377;-54
2024/03/04 01:48:14;;;;;;;10.95;5.72;;;21.00;58.50;;;;;;5019410;27;87807;-55
2024/03/04 01:50:44;;;;;;;9.05;5.30;;;21.00;58.40;;;;;;5040018;27;87480;-54
2024/03/04 01:53:11;;;;;;;8.35;5.28;;;20.90;58.50;;;;;;5019277;27;87394;-54
2024/03/04 01:55:43;;;;;;;10.43;5.78;;;20.90;58.50;;;;;;5025429;27;88623;-55
2024/03/04 01:58:11;;;;;;;7.90;4.78;;;21.00;58.50;;;;;;5040304;27;89814;-55
2024/03/04 02:00:42;;;;;;;6.35;3.95;;;20.90;58.40;;;;;;5025904;27;86863;-56
2024/03/04 02:03:12;;;;;;;11.02;5.72;;;21.00;58.40;;;;;;5025208;27;87447;-57
2024/03/04 02:05:38;;;;;;;;;;;21.00;58.40;;;;;;5031266;27;87697;-55
2024/03/04 02:08:06;;;;;;;8.90;4.57;;;20.90;58.40;;;;;;5020950;27;88478;-54
2024/03/04 02:10:34;;;;;;;7.38;4.28;;;20.90;58.40;;;;;;5010907;27;87415;-55
2024/03/04 02:13:01;;;;;;;10.52;5.70;;;20.90;59.00;;;;;;5035320;27;87689;-54
2024/03/04 02:15:26;;;;;;;8.98;5.30;;;20.90;58.40;;;;;;5022195;27;89339;-58
2024/03/04 02:17:52;;;;;;;10.60;5.38;;;20.90;58.40;;;;;;5028802;27;89072;-57
2024/03/04 02:20:20;;;;;;;8.88;5.05;;;20.90;58.40;;;;;;5016245;28;88524;-57
2024/03/04 02:22:46;;;;;;;10.57;5.20;;;20.80;58.40;;;;;;5024750;27;87276;-57
2024/03/04 02:25:13;;;;;;;8.40;5.32;;;20.90;58.20;;;;;;5032408;28;88562;-54
2024/03/04 02:27:42;;;;;;;6.50;4.60;;;20.90;58.00;;;;;;5011670;27;87883;-57
2024/03/04 02:30:08;;;;;;;11.10;5.15;;;20.80;58.10;;;;;;5007366;27;87113;-55
2024/03/04 02:32:35;;;;;;;9.27;5.05;;;20.90;58.10;;;;;;5025378;27;87347;-55
2024/03/04 02:35:07;;;;;;;7.63;4.00;;;20.90;58.20;;;;;;5015533;28;90463;-57
2024/03/04 02:37:34;;;;;;;8.18;4.70;;;20.80;58.20;;;;;;5024965;27;88512;-56
2024/03/04 02:40:02;;;;;;;8.90;4.90;;;20.80;58.00;;;;;;5020386;27;87373;-57
2024/03/04 02:42:27;;;;;;;10.55;4.80;;;20.80;58.20;;;;;;5029651;27;88348;-55
2024/03/04 02:44:53;;;;;;;7.53;4.32;;;20.80;58.20;;;;;;5023605;27;89215;-57
2024/03/04 02:47:19;;;;;;;8.40;4.68;;;20.80;58.10;;;;;;5015611;27;88780;-56
2024/03/04 02:49:44;;;;;;;10.65;4.68;;;20.80;58.20;;;;;;5018792;27;86957;-56
2024/03/04 02:52:10;;;;;;;9.85;4.78;;;20.80;58.20;;;;;;5032520;28;86908;-57
2024/03/04 02:54:36;;;;;;;9.10;4.43;;;20.80;58.10;;;;;;5031127;27;87319;-57
2024/03/04 02:57:02;;;;;;;8.02;4.50;;;20.80;58.10;;;;;;5009442;27;88445;-54
2024/03/04 02:59:27;;;;;;;8.45;4.75;;;20.80;58.00;;;;;;5022320;27;87048;-55
2024/03/04 03:01:55;;;;;;;7.22;4.00;;;20.80;58.10;;;;;;5031245;27;86901;-58
2024/03/04 03:04:24;;;;;;;9.93;4.97;;;20.80;58.00;;;;;;5028168;27;89274;-56
2024/03/04 03:06:49;;;;;;;7.28;4.45;;;20.80;58.10;;;;;;5013730;27;87812;-55
2024/03/04 03:09:15;;;;;;;8.60;5.03;;;20.80;58.00;;;;;;5014950;27;88220;-56
2024/03/04 03:11:41;;;;;;;8.48;4.57;;;20.80;58.10;;;;;;5021883;27;87497;-55
2024/03/04 03:14:07;;;;;;;7.68;4.28;;;20.80;58.10;;;;;;5041256;27;89438;-58
2024/03/04 03:16:33;;;;;;;7.43;4.18;;;20.80;58.00;;;;;;5022181;27;89079;-57
2024/03/04 03:18:59;;;;;;;6.97;4.07;;;20.80;58.10;;;;;;5030515;27;86989;-56
2024/03/04 03:21:27;;;;;;;7.10;3.90;;;20.70;57.90;;;;;;5024587;27;87029;-55
2024/03/04 03:23:56;;;;;;;8.53;4.20;;;20.70;58.00;;;;;;5012686;28;90452;-56
2024/03/04 03:26:23;;;;;;;7.85;4.65;;;20.70;58.00;;;;;;5013831;27;87696;-56
2024/03/04 03:28:48;;;;;;;8.10;4.25;;;20.70;57.90;;;;;;5031959;27;87302;-53
2024/03/04 03:31:15;;;;;;;8.13;4.15;;;20.70;58.00;;;;;;5032206;28;89628;-58
2024/03/04 03:33:41;;;;;;;6.68;3.97;;;20.70;58.00;;;;;;5029256;27;89074;-55
2024/03/04 03:36:08;;;;;;;7.38;4.47;;;20.70;57.90;;;;;;5030443;27;89932;-57
2024/03/04 03:38:34;;;;;;;8.55;4.10;;;20.70;58.10;;;;;;5029984;27;87429;-54
2024/03/04 03:41:00;;;;;;;7.30;4.05;;;20.70;58.10;;;;;;5027012;27;87220;-55
2024/03/04 03:43:27;;;;;;;7.70;4.75;;;20.70;58.00;;;;;;5012183;27;88110;-55
2024/03/04 03:45:54;;;;;;;8.05;4.22;;;20.70;58.10;;;;;;5013430;28;87781;-56
2024/03/04 03:48:19;;;;;;;7.78;3.95;;;20.70;57.90;;;;;;5027360;27;86979;-56
2024/03/04 03:50:46;;;;;;;7.88;4.85;;;20.70;57.90;;;;;;5033538;27;86806;-55
2024/03/04 03:53:11;;;;;;;8.10;4.78;;;20.70;57.80;;;;;;5024980;27;88076;-57
2024/03/04 03:55:38;;;;;;;6.57;4.00;;;20.60;57.90;;;;;;5013140;27;87855;-53
2024/03/04 03:58:04;;;;;;;7.38;4.20;;;20.60;58.00;;;;;;5014420;28;88484;-57
2024/03/04 04:00:30;;;;;;;7.57;4.55;;;20.70;58.00;;;;;;5011873;27;87129;-54
2024/03/04 04:02:59;;;;;;;7.03;4.47;;;20.60;57.80;;;;;;5013121;27;88641;-57
2024/03/04 04:05:25;;;;;;;9.18;5.03;;;20.60;57.90;;;;;;5010949;28;88349;-56
2024/03/04 04:07:51;;;;;;;8.63;4.70;;;20.60;57.90;;;;;;5013021;27;87516;-56
2024/03/04 04:10:16;;;;;;;6.38;4.38;;;20.60;57.80;;;;;;5014558;28;87788;-56
2024/03/04 04:12:42;;;;;;;6.72;3.75;;;20.60;57.80;;;;;;5027164;28;88809;-54
2024/03/04 04:15:09;;;;;;;6.45;4.28;;;20.60;57.90;;;;;;5031036;27;87993;-53
2024/03/04 04:17:34;;;;;;;6.75;3.83;;;20.60;57.90;;;;;;5019289;27;87474;-52
2024/03/04 04:20:02;;;;;;;5.20;3.10;;;20.60;57.70;;;;;;5018867;27;87253;-56
2024/03/04 04:22:29;;;;;;;9.35;4.43;;;20.60;58.00;;;;;;5029535;27;89498;-56
2024/03/04 04:24:55;;;;;;;8.25;3.97;;;20.60;57.70;;;;;;5032098;28;89873;-57
2024/03/04 04:27:22;;;;;;;5.30;3.70;;;20.60;57.80;;;;;;5025951;27;86945;-58
2024/03/04 04:29:51;;;;;;;6.22;3.92;;;20.60;57.80;;;;;;5020848;27;87839;-54
2024/03/04 04:32:17;;;;;;;6.30;3.85;;;20.60;57.90;;;;;;5013841;27;88115;-57
2024/03/04 04:34:44;;;;;;;5.63;3.67;;;20.60;57.80;;;;;;5021954;27;88517;-57
2024/03/04 04:37:10;;;;;;;4.78;3.25;;;20.60;57.60;;;;;;5025101;28;87324;-55
2024/03/04 04:39:39;;;;;;;6.72;3.90;;;20.60;57.80;;;;;;5013927;27;86844;-57
2024/03/04 04:42:06;;;;;;;6.10;3.47;;;20.50;57.60;;;;;;5011180;27;87552;-56
2024/03/04 04:44:32;;;;;;;6.18;3.50;;;20.60;57.70;;;;;;5025513;27;87800;-56
2024/03/04 04:46:58;;;;;;;6.45;3.92;;;20.50;57.70;;;;;;5012988;27;88049;-54
2024/03/04 04:49:24;;;;;;;6.93;3.90;;;20.60;57.50;;;;;;5021103;28;87062;-54
2024/03/04 04:51:50;;;;;;;6.07;3.90;;;20.50;57.60;;;;;;5032739;27;87387;-56
2024/03/04 04:54:15;;;;;;;5.75;3.30;;;20.50;57.70;;;;;;5019491;27;87235;-56
2024/03/04 04:56:42;;;;;;;5.28;3.50;;;20.50;57.70;;;;;;5041528;27;87144;-55
2024/03/04 04:59:09;;;;;;;5.70;3.35;;;20.50;57.70;;;;;;5014223;27;87571;-52
2024/03/04 05:01:35;;;;;;;8.20;4.85;;;20.50;57.70;;;;;;5031073;27;89400;-55
2024/03/04 05:04:01;;;;;;;6.38;3.83;;;20.50;57.70;;;;;;5020722;27;89538;-54
2024/03/04 05:06:27;;;;;;;6.32;3.75;;;20.50;57.70;;;;;;5026394;27;87255;-56
2024/03/04 05:08:52;;;;;;;7.03;4.65;;;20.50;57.70;;;;;;5023693;27;86915;-55
2024/03/04 05:11:20;;;;;;;7.32;4.22;;;20.50;57.60;;;;;;5011894;27;90274;-55
2024/03/04 05:13:48;;;;;;;4.45;3.30;;;20.50;57.70;;;;;;5011727;27;88770;-58
2024/03/04 05:16:14;;;;;;;6.13;3.33;;;20.50;57.60;;;;;;5023178;28;87028;-57
2024/03/04 05:18:40;;;;;;;6.95;3.83;;;20.50;57.60;;;;;;5011294;27;87306;-54
2024/03/04 05:21:06;;;;;;;4.97;3.20;;;20.50;57.50;;;;;;5021642;27;88183;-55
2024/03/04 05:23:32;;;;;;;5.38;3.50;;;20.50;57.60;;;;;;5007818;27;87799;-54
2024/03/04 05:25:58;;;;;;;6.00;3.50;;;20.50;57.70;;;;;;5023010;27;87498;-57
2024/03/04 05:28:25;;;;;;;6.13;3.38;;;20.50;57.60;;;;;;5002066;28;89171;-56
2024/03/04 05:30:52;;;;;;;7.82;4.10;;;20.50;57.60;;;;;;5019136;28;92758;-57
2024/03/04 05:33:18;;;;;;;6.15;3.72;;;20.50;57.60;;;;;;5030390;27;87902;-55
2024/03/04 05:35:45;;;;;;;6.85;4.07;;;20.40;57.60;;;;;;5029524;27;88227;-56
2024/03/04 05:38:13;;;;;;;5.22;3.67;;;20.40;57.70;;;;;;5028809;27;87988;-55
2024/03/04 05:40:39;;;;;;;6.82;3.53;;;20.40;57.70;;;;;;5013397;27;89239;-56
2024/03/04 05:43:06;;;;;;;5.55;3.50;;;20.40;57.70;;;;;;5013194;28;87417;-55
2024/03/04 05:45:33;;;;;;;4.72;3.58;;;20.40;57.70;;;;;;5027929;27;87123;-53
2024/03/04 05:47:58;;;;;;;6.57;3.63;;;20.40;57.70;;;;;;5023662;27;88096;-57
2024/03/04 05:50:26;;;;;;;6.22;3.67;;;20.50;57.80;;;;;;5022445;27;87585;-54
2024/03/04 05:52:53;;;;;;;5.85;3.30;;;20.40;57.80;;;;;;5021487;27;88604;-57
2024/03/04 05:55:19;;;;;;;5.65;3.38;;;20.40;57.60;;;;;;5018701;28;87939;-58
2024/03/04 05:57:46;;;;;;;5.10;3.55;;;20.40;57.60;;;;;;5010940;27;89978;-53
2024/03/04 06:00:14;;;;;;;5.15;3.15;;;20.40;57.60;;;;;;5018837;27;89030;-55
2024/03/04 06:02:43;;;;;;;6.65;3.40;;;20.40;57.60;;;;;;5015641;27;88369;-56
2024/03/04 06:05:11;;;;;;;6.93;3.35;;;20.40;57.50;;;;;;5012389;27;87597;-56
2024/03/04 06:07:37;;;;;;;6.38;3.33;;;20.40;57.40;;;;;;5029198;27;88042;-55
2024/03/04 06:10:03;;;;;;;4.90;3.30;;;20.40;57.50;;;;;;5010418;28;88489;-54
2024/03/04 06:12:29;;;;;;;6.57;3.28;;;20.40;57.60;;;;;;5011602;27;88931;-54
2024/03/04 06:14:55;;;;;;;5.45;3.28;;;20.30;57.40;;;;;;5021914;27;87276;-55
2024/03/04 06:17:21;;;;;;;5.72;3.60;;;20.40;57.40;;;;;;5030923;27;86672;-55
2024/03/04 06:19:47;;;;;;;5.28;3.40;;;20.40;57.20;;;;;;5008858;27;87519;-58
2024/03/04 06:22:13;;;;;;;5.80;3.20;;;20.30;57.30;;;;;;5015192;28;87866;-55
2024/03/04 06:24:39;;;;;;;5.95;3.35;;;20.40;57.50;;;;;;5014470;27;88460;-56
2024/03/04 06:27:08;;;;;;;5.25;3.22;;;20.30;57.40;;;;;;5028446;27;87684;-56
2024/03/04 06:29:34;;;;;;;5.93;3.08;;;20.30;57.30;;;;;;5012209;27;88488;-56
2024/03/04 06:32:00;;;;;;;5.15;2.90;;;20.30;57.40;;;;;;5020978;27;88008;-55
2024/03/04 06:34:28;;;;;;;6.45;3.53;;;20.30;57.50;;;;;;5029526;27;87223;-56
2024/03/04 06:36:57;;;;;;;4.07;2.80;;;20.30;57.40;;;;;;5030586;28;87392;-55
2024/03/04 06:39:23;;;;;;;6.13;3.45;;;20.30;57.40;;;;;;5024171;27;88132;-57
2024/03/04 06:41:50;;;;;;;3.35;2.60;;;20.30;57.30;;;;;;5015181;28;88275;-56
2024/03/04 06:44:16;;;;;;;6.15;3.00;;;20.30;57.40;;;;;;5025055;27;86790;-52
2024/03/04 06:46:43;;;;;;;4.57;2.80;;;20.30;57.20;;;;;;5043035;27;88026;-55
2024/03/04 06:49:08;;;;;;;7.43;3.60;;;20.30;57.20;;;;;;5021815;27;89026;-56
2024/03/04 06:51:37;;;;;;;4.70;3.00;;;20.40;57.40;;;;;;5008915;27;89639;-53
2024/03/04 06:54:06;;;;;;;4.88;2.92;;;20.40;57.20;;;;;;5014910;27;87460;-56
2024/03/04 06:56:33;;;;;;;4.90;3.00;;;20.40;57.40;;;;;;5036191;27;87804;-53
2024/03/04 06:58:59;;;;;;;7.70;3.50;;;20.40;57.80;;;;;;5001626;27;87490;-55
2024/03/04 07:01:26;;;;;;;6.15;3.55;;;20.40;57.80;;;;;;4998107;27;87428;-56
2024/03/04 07:03:53;;;;;;;5.35;3.42;;;20.40;57.70;;;;;;5006699;28;87335;-54
2024/03/04 07:06:19;;;;;;;6.28;3.70;;;20.50;57.90;;;;;;4999146;28;87604;-57
2024/03/04 07:08:45;;;;;;;6.18;3.63;;;20.90;57.40;;;;;;5005249;28;89761;-56
2024/03/04 07:11:15;;;;;;;4.50;2.97;;;21.20;56.90;;;;;;4994812;27;87936;-57
2024/03/04 07:13:41;;;;;;;6.53;3.00;;;21.60;55.80;;;;;;4998883;28;88128;-56
2024/03/04 07:16:07;;;;;;;5.20;3.03;;;21.80;55.10;;;;;;4993849;28;87451;-57
2024/03/04 07:18:36;;;;;;;5.68;2.53;;;22.00;54.70;;;;;;5001897;28;87783;-55
2024/03/04 07:21:07;;;;;;;5.95;3.25;;;22.20;54.50;;;;;;4994261;27;88218;-55
2024/03/04 07:23:35;;;;;;;5.32;2.83;;;22.40;54.20;;;;;;4996028;28;87609;-54
2024/03/04 07:26:10;;;;;;;4.43;3.05;;;22.60;53.90;;;;;;5001444;27;87883;-58
2024/03/04 07:28:40;;;;;;;5.07;2.97;;;22.60;53.70;;;;;;5001764;28;88217;-55
2024/03/04 07:31:07;;;;;;;4.93;3.55;;;22.70;53.50;;;;;;4992523;28;88376;-58
2024/03/04 07:33:33;;;;;;;4.43;2.58;;;22.80;53.50;;;;;;5001227;28;87632;-58
2024/03/04 07:35:59;;;;;;;6.25;2.85;;;22.80;53.40;;;;;;5010364;27;87643;-57
2024/03/04 07:38:24;;;;;;;8.20;2.75;;;22.90;53.40;;;;;;5009905;27;88977;-56
2024/03/04 07:40:51;;;;;;;4.43;2.40;;;22.90;53.20;;;;;;4988754;28;88725;-58
2024/03/04 07:43:17;;;;;;;3.30;2.40;;;23.00;53.10;;;;;;5006084;28;87297;-56
2024/03/04 07:45:45;;;;;;;3.78;2.70;;;23.00;53.30;;;;;;4998852;27;87324;-58
2024/03/04 07:48:12;;;;;;;14.55;4.50;;;23.00;53.10;;;;;;4991409;28;88007;-52
2024/03/04 07:50:39;;;;;;;5.97;3.13;;;23.00;51.90;;;;;;4989160;28;88577;-55
2024/03/04 07:53:07;;;;;;;4.65;2.83;;;23.00;53.00;;;;;;4993931;28;87616;-57
2024/03/04 07:55:32;;;;;;;6.47;3.00;;;23.10;52.90;;;;;;5010153;27;86835;-58
2024/03/04 07:57:59;;;;;;;3.22;2.45;;;23.20;52.90;;;;;;5009634;28;89133;-53
2024/03/04 08:00:25;;;;;;;7.97;2.97;;;23.10;53.00;;;;;;5001329;28;88237;-56
2024/03/04 08:02:50;;;;;;;5.70;3.03;;;23.10;53.10;;;;;;5010148;27;88831;-58
2024/03/04 08:05:17;;;;;;;6.90;2.67;;;23.10;53.10;;;;;;4995865;28;87316;-57
2024/03/04 08:07:42;;;;;;;3.35;2.10;;;23.00;53.10;;;;;;5010541;28;87547;-57
2024/03/04 08:10:13;;;;;;;4.22;2.67;;;23.10;53.10;;;;;;4999805;28;88439;-54
2024/03/04 08:12:38;;;;;;;16.10;6.00;;;23.10;53.00;;;;;;5002174;27;87199;-53
2024/03/04 08:15:05;;;;;;;14.38;3.60;;;22.90;50.00;;;;;;5006658;27;87372;-56
2024/03/04 08:17:32;;;;;;;15.35;4.43;;;22.90;51.90;;;;;;4999959;27;87339;-56
2024/03/04 08:19:59;;;;;;;12.38;4.00;;;23.00;51.50;;;;;;4998775;27;86930;-58
2024/03/04 08:22:26;;;;;;;16.42;4.07;;;22.90;51.40;;;;;;4996789;28;87452;-56
2024/03/04 08:24:53;;;;;;;9.00;3.60;;;22.90;51.50;;;;;;4993483;28;92219;-53
2024/03/04 08:27:20;;;;;;;8.73;3.20;;;22.90;52.00;;;;;;4939800;28;1605306;-54
2024/03/04 08:29:46;;;;;;;8.35;2.90;;;23.00;51.90;;;;;;5010855;28;89336;-58
2024/03/04 08:32:13;;;;;;;12.77;3.08;;;22.90;51.50;;;;;;5013050;27;87308;-57
2024/03/04 08:34:40;;;;;;;11.18;3.58;;;22.90;51.90;;;;;;5004801;27;87639;-53
2024/03/04 08:37:07;;;;;;;8.63;3.45;;;22.90;52.40;;;;;;5011571;28;89255;-58
2024/03/04 08:39:33;;;;;;;7.15;3.08;;;22.90;51.90;;;;;;4998336;28;87744;-55
2024/03/04 08:41:58;;;;;;;9.93;3.42;;;23.00;52.00;;;;;;4999123;28;87604;-53
2024/03/04 08:44:24;;;;;;;7.93;2.63;;;23.00;51.70;;;;;;5011296;28;87447;-58
2024/03/04 08:46:50;;;;;;;12.43;3.20;;;23.00;51.90;;;;;;4991176;27;89545;-55
2024/03/04 08:49:16;;;;;;;8.15;3.78;;;23.00;51.90;;;;;;5006811;28;87961;-56
2024/03/04 08:51:41;;;;;;;10.85;3.42;;;22.90;52.10;;;;;;4993848;27;87996;-59
2024/03/04 08:54:08;;;;;;;6.95;3.13;;;23.00;52.30;;;;;;4991871;28;87033;-56
2024/03/04 08:56:34;;;;;;;8.57;2.53;;;23.00;52.40;;;;;;4994905;27;88226;-56
2024/03/04 08:59:00;;;;;;;13.73;3.20;;;22.90;52.40;;;;;;5002845;28;88359;-57
2024/03/04 09:01:26;;;;;;;11.80;3.05;;;22.90;52.60;;;;;;4998265;28;86885;-60
2024/03/04 09:03:52;;;;;;;9.48;2.90;;;23.00;52.50;;;;;;5031299;27;87941;-57
2024/03/04 09:06:20;;;;;;;7.20;3.00;;;23.00;52.60;;;;;;4998065;28;90019;-58
2024/03/04 09:08:47;;;;;;;9.68;2.95;;;23.00;53.00;;;;;;4992551;28;87789;-54
2024/03/04 09:11:13;;;;;;;8.65;3.03;;;22.90;53.00;;;;;;4990994;28;87582;-57
2024/03/04 09:13:42;;;;;;;6.60;3.00;;;23.00;53.20;;;;;;5035692;27;87829;-55
2024/03/04 09:16:08;;;;;;;9.20;2.67;;;23.00;53.30;;;;;;5005347;28;88379;-56
2024/03/04 09:18:38;;;;;;;6.90;2.72;;;23.10;53.50;;;;;;5036320;27;89811;-57
2024/03/04 09:21:07;;;;;;;8.13;3.03;;;23.00;53.60;;;;;;5012229;27;87755;-55
2024/03/04 09:23:34;;;;;;;9.27;3.00;;;23.00;53.80;;;;;;4997834;28;88190;-57
2024/03/04 09:26:00;;;;;;;5.63;3.00;;;23.00;53.80;;;;;;4994972;28;88745;-54
2024/03/04 09:28:26;;;;;;;12.40;3.20;;;23.10;53.90;;;;;;4998074;27;87687;-53
2024/03/04 09:30:51;;;;;;;9.50;3.38;;;23.10;53.90;;;;;;5007626;28;86924;-55
2024/03/04 09:33:17;;;;;;;7.07;2.88;;;23.10;54.00;;;;;;5005556;28;87230;-58
2024/03/04 09:35:43;;;;;;;6.22;2.92;;;23.10;54.20;;;;;;4995752;28;88049;-56
2024/03/04 09:38:09;;;;;;;11.25;2.83;;;23.20;54.00;;;;;;5000373;27;87856;-55
2024/03/04 09:40:35;;;;;;;6.57;2.85;;;23.10;49.50;;;;;;4990647;27;88683;-58
2024/03/04 09:43:02;;;;;;;10.50;3.53;;;22.80;49.80;;;;;;4997862;28;87320;-57
2024/03/04 09:45:29;;;;;;;8.82;3.03;;;22.60;50.70;;;;;;4990242;28;89147;-56
2024/03/04 09:47:56;;;;;;;9.68;3.42;;;22.40;51.30;;;;;;4998672;28;88476;-59
2024/03/04 09:50:22;;;;;;;9.25;3.13;;;22.50;51.90;;;;;;5010547;27;87528;-57
2024/03/04 09:52:49;;;;;;;10.32;3.53;;;22.50;51.10;;;;;;4999779;28;87996;-56
2024/03/04 09:55:16;;;;;;;15.20;3.92;;;22.40;51.60;;;;;;4999629;28;88435;-53
2024/03/04 09:57:43;;;;;;;10.05;3.10;;;22.20;51.80;;;;;;5005121;28;91818;-63
2024/03/04 10:00:14;;;;;;;5.45;2.25;;;22.20;52.40;;;;;;5031986;27;87461;-57
2024/03/04 10:02:44;;;;;;;7.72;2.70;;;22.40;52.80;;;;;;4998967;27;87664;-58
2024/03/04 10:05:11;;;;;;;11.82;3.47;;;22.50;52.30;;;;;;4992744;28;89922;-57
2024/03/04 10:07:38;;;;;;;14.88;3.42;;;22.50;52.10;;;;;;5037884;27;90278;-56
2024/03/04 10:10:05;;;;;;;8.95;2.95;;;22.50;52.30;;;;;;4996181;28;88062;-55
2024/03/04 10:12:31;;;;;;;6.50;3.00;;;22.40;52.20;;;;;;4997261;27;87806;-58
2024/03/04 10:15:03;;;;;;;8.18;3.00;;;22.30;52.50;;;;;;5026245;27;89224;-56
2024/03/04 10:17:29;;;;;;;9.80;3.53;;;22.40;52.20;;;;;;4994245;28;87432;-57
2024/03/04 10:20:02;;;;;;;8.32;2.65;;;22.30;52.50;;;;;;4993083;27;87011;-56
2024/03/04 10:22:38;;;;;;;8.55;2.60;;;22.40;52.20;;;;;;4993660;28;87621;-54
2024/03/04 10:25:07;;;;;;;10.60;3.95;;;22.40;52.60;;;;;;5037314;27;89264;-54
2024/03/04 10:27:42;;;;;;;8.05;2.78;;;22.20;49.30;;;;;;5008270;28;87970;-54
2024/03/04 10:30:16;;;;;;;7.40;2.40;;;22.30;51.50;;;;;;5033106;27;88200;-56
2024/03/04 10:32:52;;;;;;;8.30;3.40;;;22.40;51.40;;;;;;5002161;27;88531;-56
2024/03/04 10:35:19;;;;;;;5.60;2.70;;;22.40;52.30;;;;;;5003896;27;87537;-58
2024/03/04 10:37:46;;;;;;;6.57;2.75;;;22.60;55.00;;;;;;5007898;27;88636;-57
2024/03/04 10:40:13;;;;;;;7.80;3.10;;;22.70;56.10;;;;;;5011657;28;87530;-55
2024/03/04 10:42:40;;;;;;;6.03;3.03;;;22.80;53.00;;;;;;5003247;28;87120;-57
2024/03/04 10:45:07;;;;;;;7.70;2.97;;;22.80;52.40;;;;;;5010527;28;88618;-58
2024/03/04 10:47:39;;;;;;;12.68;3.10;;;22.90;52.70;;;;;;5002022;27;88082;-55
2024/03/04 10:50:05;;;;;;;6.53;2.95;;;22.90;52.20;;;;;;4987266;27;87283;-58
2024/03/04 10:52:31;;;;;;;8.57;3.20;;;22.90;52.00;;;;;;4999185;28;88386;-56
2024/03/04 10:54:57;;;;;;;9.80;3.50;;;22.90;52.10;;;;;;4994605;28;89589;-58
2024/03/04 10:57:30;;;;;;;6.20;2.17;;;23.00;51.90;;;;;;4992279;28;88304;-57
2024/03/04 11:00:02;;;;;;;6.03;2.53;;;23.00;52.00;;;;;;5005583;28;87433;-51
2024/03/04 11:02:43;;;;;;;9.30;2.50;;;23.10;52.30;;;;;;5010520;27;87004;-57
2024/03/04 11:05:11;;;;;;;6.32;2.55;;;23.20;52.30;;;;;;5004373;28;87616;-54
2024/03/04 11:07:43;;;;;;;6.40;3.13;;;23.20;52.40;;;;;;5023179;27;88285;-57
2024/03/04 11:10:44;;;;;;;9.85;2.60;;;23.30;52.30;;;;;;5024615;27;87299;-56
2024/03/04 11:13:34;;;;;;;6.80;2.70;;;23.30;52.40;;;;;;4993513;28;91292;-57
2024/03/04 11:16:16;;;;;;;7.00;2.55;;;23.40;52.60;;;;;;5024148;27;91603;-56
2024/03/04 11:19:13;;;;;;;6.97;2.88;;;23.30;52.90;;;;;;5035552;27;89304;-54
2024/03/04 11:21:43;;;;;;;8.82;3.22;;;23.40;53.00;;;;;;5041849;27;87867;-57
2024/03/04 11:24:10;;;;;;;7.35;2.42;;;23.40;53.20;;;;;;5021434;27;87034;-56
2024/03/04 11:26:38;;;;;;;6.22;2.80;;;23.40;53.30;;;;;;5005452;27;88548;-55
2024/03/04 11:29:05;;;;;;;5.95;2.47;;;23.30;53.20;;;;;;4992236;28;87704;-56
2024/03/04 11:31:31;;;;;;;6.85;2.53;;;23.40;53.30;;;;;;5003804;27;87019;-58
2024/03/04 11:34:01;;;;;;;5.10;2.40;;;23.40;53.10;;;;;;4993647;28;87289;-55
2024/03/04 11:36:28;;;;;;;5.18;2.45;;;23.40;52.90;;;;;;4994451;28;87503;-57
2024/03/04 11:38:56;;;;;;;5.18;2.30;;;23.50;52.10;;;;;;4995032;28;88152;-55
2024/03/04 11:41:44;;;;;;;5.75;2.05;;;23.50;51.60;;;;;;5033452;27;87364;-57
2024/03/04 11:44:11;;;;;;;2.92;1.77;;;23.60;51.00;;;;;;4989050;27;87003;-58
2024/03/04 11:46:42;;;;;;;5.38;2.10;;;23.60;50.40;;;;;;4996817;27;90597;-56
2024/03/04 11:49:28;;;;;;;6.38;2.20;;;23.60;49.80;;;;;;5001079;28;88851;-56
2024/03/04 11:52:17;;;;;;;8.25;2.65;;;23.30;47.20;;;;;;5027387;28;87245;-58
2024/03/04 11:54:44;;;;;;;3.95;2.05;;;23.30;47.60;;;;;;5018849;27;87395;-56
2024/03/04 11:57:10;;;;;;;4.32;2.25;;;23.20;48.00;;;;;;5027556;27;88098;-54
2024/03/04 11:59:39;;;;;;;4.10;1.70;;;23.00;48.40;;;;;;5029646;27;87765;-57
2024/03/04 12:02:08;;;;;;;;;;;22.90;48.30;;;;;;5033118;27;87917;-57
2024/03/04 12:04:34;;;;;;;4.28;2.17;;;23.00;48.80;;;;;;5034434;27;86774;-58
2024/03/04 12:07:02;;;;;;;5.85;2.20;;;22.90;49.00;;;;;;5031329;28;87986;-55
2024/03/04 12:09:27;;;;;;;6.57;1.90;;;22.80;49.30;;;;;;5028685;27;88346;-58
2024/03/04 12:11:55;;;;;;;4.22;1.70;;;22.70;49.40;;;;;;5021864;27;88176;-56
2024/03/04 12:14:21;;;;;;;6.90;2.25;;;22.70;49.50;;;;;;5033194;27;87482;-57
2024/03/04 12:16:48;;;;;;;4.10;1.85;;;22.80;49.50;;;;;;5030327;27;88351;-56
2024/03/04 12:19:14;;;;;;;3.30;2.15;;;22.80;49.50;;;;;;5031755;28;89261;-57
2024/03/04 12:21:42;;;;;;;9.95;2.70;;;22.80;49.80;;;;;;5015747;27;87171;-56
2024/03/04 12:24:08;;;;;;;3.55;1.65;;;22.90;49.70;;;;;;5024395;27;87985;-58
2024/03/04 12:26:35;;;;;;;2.58;2.13;;;23.00;50.10;;;;;;5023443;27;90692;-57
2024/03/04 12:29:03;;;;;;;6.45;2.35;;;23.00;50.00;;;;;;5018605;27;88237;-56
2024/03/04 12:31:29;;;;;;;5.00;1.63;;;23.00;50.00;;;;;;5026951;27;87578;-59
2024/03/04 12:33:56;;;;;;;8.02;2.40;;;22.90;50.30;;;;;;5025020;28;87701;-56
2024/03/04 12:36:29;;;;;;;4.75;2.30;;;22.80;50.40;;;;;;5020860;27;88344;-57
2024/03/04 12:38:56;;;;;;;4.85;1.70;;;22.80;50.70;;;;;;5017973;27;88241;-58
2024/03/04 12:41:26;;;;;;;3.75;1.65;;;22.90;50.70;;;;;;5015580;27;87957;-57
2024/03/04 12:43:55;;;;;;;4.32;1.60;;;22.90;50.90;;;;;;5018721;27;87508;-53
2024/03/04 12:46:21;;;;;;;5.07;2.08;;;22.90;50.90;;;;;;5016710;28;88262;-55